<?xml version="1.0" encoding="UTF-8" standalone="no" ?>
<gpx xmlns="http://www.topografix.com/GPX/1/1" xmlns:xsi="http://www.w3.org/2001/XMLSchema-instance" xsi:schemaLocation="http://www.topografix.com/GPX/1/1 http://www.topografix.com/GPX/1/1/gpx.xsd" version="1.1" creator="VisuGPX - https://www.visugpx.com">
  <metadata>
    <name>tour france</name>
  </metadata>
  <trk>
    <name><![CDATA[SES_11]]></name>
    <extensions>
      <line xmlns="http://www.topografix.com/GPX/gpx_style/0/2">
        <color>458a00</color>
        <width>4</width>
      </line>
    </extensions>
    <trkseg>
      <trkpt lat="43.41927" lon="-0.67761">
        <ele>87.053</ele>
        <time>2016-09-25T18:56:02Z</time>
      </trkpt>
      <trkpt lat="43.41788" lon="-0.67785">
        <ele>103.249</ele>
        <time>2016-09-25T18:56:22Z</time>
      </trkpt>
      <trkpt lat="43.417" lon="-0.67806">
        <ele>118.2</ele>
      </trkpt>
      <trkpt lat="43.4157" lon="-0.67809">
        <ele>128.543</ele>
        <time>2016-09-25T18:57:02Z</time>
      </trkpt>
      <trkpt lat="43.41469" lon="-0.67673">
        <ele>148.262</ele>
        <time>2016-09-25T18:57:22Z</time>
      </trkpt>
      <trkpt lat="43.41389" lon="-0.67607">
        <ele>169.962</ele>
        <time>2016-09-25T18:57:42Z</time>
      </trkpt>
      <trkpt lat="43.4133" lon="-0.67648">
        <ele>172.983</ele>
        <time>2016-09-25T18:58:02Z</time>
      </trkpt>
      <trkpt lat="43.41221" lon="-0.67678">
        <ele>170.011</ele>
        <time>2016-09-25T18:58:22Z</time>
      </trkpt>
      <trkpt lat="43.41155" lon="-0.67729">
        <ele>173.008</ele>
        <time>2016-09-25T18:58:42Z</time>
      </trkpt>
      <trkpt lat="43.41124" lon="-0.67618">
        <ele>173.262</ele>
        <time>2016-09-25T18:59:02Z</time>
      </trkpt>
      <trkpt lat="43.41053" lon="-0.67605">
        <ele>166.119</ele>
        <time>2016-09-25T18:59:22Z</time>
      </trkpt>
      <trkpt lat="43.40934" lon="-0.67553">
        <ele>160.848</ele>
        <time>2016-09-25T18:59:42Z</time>
      </trkpt>
      <trkpt lat="43.40866" lon="-0.67609">
        <ele>147.227</ele>
        <time>2016-09-25T19:00:02Z</time>
      </trkpt>
      <trkpt lat="43.40732" lon="-0.67675">
        <ele>133.653</ele>
        <time>2016-09-25T19:00:22Z</time>
      </trkpt>
      <trkpt lat="43.40675" lon="-0.67806">
        <ele>118.214</ele>
        <time>2016-09-25T19:00:42Z</time>
      </trkpt>
      <trkpt lat="43.40625" lon="-0.67879">
        <ele>108.357</ele>
        <time>2016-09-25T19:01:02Z</time>
      </trkpt>
      <trkpt lat="43.40541" lon="-0.67791">
        <ele>105.776</ele>
        <time>2016-09-25T19:01:22Z</time>
      </trkpt>
      <trkpt lat="43.40382" lon="-0.67881">
        <ele>95.034</ele>
        <time>2016-09-25T19:01:42Z</time>
      </trkpt>
      <trkpt lat="43.40332" lon="-0.67866">
        <ele>95.055</ele>
        <time>2016-09-25T19:02:02Z</time>
      </trkpt>
      <trkpt lat="43.40109" lon="-0.67991">
        <ele>100.01</ele>
        <time>2016-09-25T19:02:22Z</time>
      </trkpt>
      <trkpt lat="43.39936" lon="-0.68177">
        <ele>109.408</ele>
        <time>2019-03-30T17:40:05Z</time>
      </trkpt>
      <trkpt lat="43.39907" lon="-0.68184">
        <ele>109.299</ele>
        <time>2016-09-25T19:03:02Z</time>
      </trkpt>
      <trkpt lat="43.39826" lon="-0.68332">
        <ele>115.756</ele>
        <time>2016-09-25T19:03:22Z</time>
      </trkpt>
      <trkpt lat="43.39805" lon="-0.68332">
        <ele>114.935</ele>
        <time>2016-09-25T19:03:42Z</time>
      </trkpt>
      <trkpt lat="43.39717" lon="-0.68453">
        <ele>115.4</ele>
        <time>2016-09-25T19:04:02Z</time>
      </trkpt>
      <trkpt lat="43.39687" lon="-0.68464">
        <ele>113.9</ele>
        <time>2016-09-25T19:04:22Z</time>
      </trkpt>
      <trkpt lat="43.39676" lon="-0.6848">
        <ele>115.961</ele>
        <time>2016-09-25T19:04:42Z</time>
      </trkpt>
      <trkpt lat="43.39659" lon="-0.68508">
        <ele>115.7</ele>
        <time>2016-09-25T19:05:02Z</time>
      </trkpt>
      <trkpt lat="43.39625" lon="-0.68524">
        <ele>113.9</ele>
        <time>2016-09-25T19:05:22Z</time>
      </trkpt>
      <trkpt lat="43.39588" lon="-0.68505">
        <ele>114.7</ele>
      </trkpt>
      <trkpt lat="43.39556" lon="-0.68502">
        <ele>115</ele>
      </trkpt>
      <trkpt lat="43.39541" lon="-0.68517">
        <ele>115.7</ele>
        <time>2019-03-30T17:43:05Z</time>
      </trkpt>
      <trkpt lat="43.39505" lon="-0.68469">
        <ele>124.4</ele>
      </trkpt>
      <trkpt lat="43.39464" lon="-0.68438">
        <ele>125.9</ele>
      </trkpt>
      <trkpt lat="43.39423" lon="-0.68429">
        <ele>129.407</ele>
        <time>2016-09-25T19:06:02Z</time>
      </trkpt>
      <trkpt lat="43.39397" lon="-0.68459">
        <ele>130.427</ele>
        <time>2016-09-25T19:06:22Z</time>
      </trkpt>
      <trkpt lat="43.39441" lon="-0.68499">
        <ele>126.5</ele>
      </trkpt>
      <trkpt lat="43.3945" lon="-0.68535">
        <ele>124.6</ele>
        <time>2016-09-25T19:06:42Z</time>
      </trkpt>
      <trkpt lat="43.39429" lon="-0.68602">
        <ele>123.3</ele>
        <time>2016-09-25T19:07:02Z</time>
      </trkpt>
      <trkpt lat="43.39388" lon="-0.68663">
        <ele>129.552</ele>
        <time>2019-03-30T17:44:45Z</time>
      </trkpt>
      <trkpt lat="43.39405" lon="-0.68905">
        <ele>152.991</ele>
        <time>2016-09-25T19:07:42Z</time>
      </trkpt>
      <trkpt lat="43.39445" lon="-0.69032">
        <ele>163.22</ele>
        <time>2016-09-25T19:08:02Z</time>
      </trkpt>
      <trkpt lat="43.39436" lon="-0.69092">
        <ele>167.316</ele>
        <time>2016-09-25T19:08:22Z</time>
      </trkpt>
      <trkpt lat="43.39447" lon="-0.69158">
        <ele>171.697</ele>
        <time>2016-09-25T19:08:42Z</time>
      </trkpt>
      <trkpt lat="43.39447" lon="-0.6925">
        <ele>177.15</ele>
        <time>2016-09-25T19:09:02Z</time>
      </trkpt>
      <trkpt lat="43.39395" lon="-0.69399">
        <ele>191.979</ele>
        <time>2016-09-25T19:09:22Z</time>
      </trkpt>
      <trkpt lat="43.39419" lon="-0.69476">
        <ele>198.157</ele>
        <time>2016-09-25T19:09:42Z</time>
      </trkpt>
      <trkpt lat="43.39404" lon="-0.69495">
        <ele>196.5</ele>
        <time>2019-03-30T17:47:25Z</time>
      </trkpt>
      <trkpt lat="43.39393" lon="-0.69777">
        <ele>163.02</ele>
        <time>2019-03-30T17:47:45Z</time>
      </trkpt>
      <trkpt lat="43.39399" lon="-0.70081">
        <ele>149.308</ele>
        <time>2016-09-25T19:10:22Z</time>
      </trkpt>
      <trkpt lat="43.39481" lon="-0.70377">
        <ele>125.251</ele>
        <time>2016-09-25T19:10:42Z</time>
      </trkpt>
      <trkpt lat="43.39589" lon="-0.70476">
        <ele>113.328</ele>
        <time>2016-09-25T19:11:02Z</time>
      </trkpt>
      <trkpt lat="43.39606" lon="-0.70525">
        <ele>108.647</ele>
        <time>2016-09-25T19:11:22Z</time>
      </trkpt>
      <trkpt lat="43.39537" lon="-0.70639">
        <ele>110.366</ele>
        <time>2016-09-25T19:11:42Z</time>
      </trkpt>
      <trkpt lat="43.39503" lon="-0.70804">
        <ele>118.232</ele>
        <time>2016-09-25T19:12:02Z</time>
      </trkpt>
      <trkpt lat="43.39037" lon="-0.70712">
        <ele>126.953</ele>
        <time>2016-09-25T19:12:22Z</time>
      </trkpt>
      <trkpt lat="43.38904" lon="-0.70622">
        <ele>127.866</ele>
        <time>2016-09-25T19:12:42Z</time>
      </trkpt>
      <trkpt lat="43.38681" lon="-0.70581">
        <ele>137.275</ele>
        <time>2016-09-25T19:13:02Z</time>
      </trkpt>
      <trkpt lat="43.38608" lon="-0.70624">
        <ele>140.047</ele>
        <time>2016-09-25T19:13:22Z</time>
      </trkpt>
      <trkpt lat="43.3853" lon="-0.70707">
        <ele>138.329</ele>
        <time>2016-09-25T19:13:42Z</time>
      </trkpt>
      <trkpt lat="43.38229" lon="-0.70793">
        <ele>122.721</ele>
        <time>2016-09-25T19:14:02Z</time>
      </trkpt>
      <trkpt lat="43.38229" lon="-0.70793">
        <ele>122.721</ele>
        <time>2016-09-25T19:14:02Z</time>
      </trkpt>
      <trkpt lat="43.38184" lon="-0.70834">
        <ele>125.708</ele>
        <time>2016-09-25T19:14:22Z</time>
      </trkpt>
      <trkpt lat="43.38125" lon="-0.70937">
        <ele>135.54</ele>
        <time>2016-09-25T19:14:42Z</time>
      </trkpt>
      <trkpt lat="43.38067" lon="-0.70967">
        <ele>136.557</ele>
        <time>2016-09-25T19:15:02Z</time>
      </trkpt>
      <trkpt lat="43.38047" lon="-0.70967">
        <ele>136.146</ele>
        <time>2016-09-25T19:15:22Z</time>
      </trkpt>
      <trkpt lat="43.38017" lon="-0.71004">
        <ele>140.435</ele>
        <time>2016-09-25T19:15:42Z</time>
      </trkpt>
      <trkpt lat="43.37964" lon="-0.71336">
        <ele>175.051</ele>
        <time>2016-09-25T19:16:02Z</time>
      </trkpt>
      <trkpt lat="43.37858" lon="-0.71396">
        <ele>175.022</ele>
        <time>2016-09-25T19:16:22Z</time>
      </trkpt>
      <trkpt lat="43.37749" lon="-0.71422">
        <ele>175.635</ele>
        <time>2016-09-25T19:16:42Z</time>
      </trkpt>
      <trkpt lat="43.37622" lon="-0.71398">
        <ele>177.644</ele>
        <time>2016-09-25T19:17:02Z</time>
      </trkpt>
      <trkpt lat="43.37499" lon="-0.71416">
        <ele>187.164</ele>
        <time>2016-09-25T19:17:22Z</time>
      </trkpt>
      <trkpt lat="43.37449" lon="-0.71409">
        <ele>192.406</ele>
        <time>2016-09-25T19:17:42Z</time>
      </trkpt>
      <trkpt lat="43.37343" lon="-0.71465">
        <ele>199.216</ele>
        <time>2016-09-25T19:18:02Z</time>
      </trkpt>
      <trkpt lat="43.3729" lon="-0.71546">
        <ele>203.808</ele>
        <time>2016-09-25T19:18:22Z</time>
      </trkpt>
      <trkpt lat="43.37236" lon="-0.71701">
        <ele>218.922</ele>
        <time>2016-09-25T19:18:42Z</time>
      </trkpt>
      <trkpt lat="43.37212" lon="-0.71815">
        <ele>225.059</ele>
        <time>2016-09-25T19:19:02Z</time>
      </trkpt>
      <trkpt lat="43.37089" lon="-0.72019">
        <ele>238.578</ele>
        <time>2016-09-25T19:19:22Z</time>
      </trkpt>
      <trkpt lat="43.37044" lon="-0.72057">
        <ele>246.667</ele>
        <time>2016-09-25T19:19:42Z</time>
      </trkpt>
      <trkpt lat="43.37041" lon="-0.72094">
        <ele>247.313</ele>
        <time>2016-09-25T19:20:02Z</time>
      </trkpt>
      <trkpt lat="43.37119" lon="-0.72396">
        <ele>239.294</ele>
        <time>2016-09-25T19:20:22Z</time>
      </trkpt>
      <trkpt lat="43.372" lon="-0.72531">
        <ele>240.037</ele>
        <time>2016-09-25T19:20:42Z</time>
      </trkpt>
      <trkpt lat="43.37377" lon="-0.72652">
        <ele>240.956</ele>
        <time>2016-09-25T19:21:02Z</time>
      </trkpt>
      <trkpt lat="43.37382" lon="-0.72686">
        <ele>239.849</ele>
        <time>2016-09-25T19:21:22Z</time>
      </trkpt>
      <trkpt lat="43.37371" lon="-0.7274">
        <ele>236.502</ele>
        <time>2016-09-25T19:21:42Z</time>
      </trkpt>
      <trkpt lat="43.3739" lon="-0.72821">
        <ele>232.522</ele>
        <time>2016-09-25T19:22:02Z</time>
      </trkpt>
      <trkpt lat="43.37385" lon="-0.72905">
        <ele>226.408</ele>
        <time>2016-09-25T19:22:22Z</time>
      </trkpt>
      <trkpt lat="43.37398" lon="-0.72923">
        <ele>222.6</ele>
      </trkpt>
      <trkpt lat="43.37403" lon="-0.72951">
        <ele>221.6</ele>
        <time>2016-09-25T19:22:42Z</time>
      </trkpt>
      <trkpt lat="43.37332" lon="-0.73006">
        <ele>213.487</ele>
        <time>2016-09-25T19:23:02Z</time>
      </trkpt>
      <trkpt lat="43.37243" lon="-0.73001">
        <ele>211.536</ele>
        <time>2016-09-25T19:23:22Z</time>
      </trkpt>
      <trkpt lat="43.37156" lon="-0.73044">
        <ele>199.665</ele>
        <time>2016-09-25T19:23:42Z</time>
      </trkpt>
      <trkpt lat="43.37109" lon="-0.73048">
        <ele>189.971</ele>
        <time>2016-09-25T19:24:02Z</time>
      </trkpt>
      <trkpt lat="43.37044" lon="-0.73091">
        <ele>181.492</ele>
        <time>2016-09-25T19:24:22Z</time>
      </trkpt>
      <trkpt lat="43.36995" lon="-0.73179">
        <ele>172.574</ele>
        <time>2016-09-25T19:25:02Z</time>
      </trkpt>
      <trkpt lat="43.36945" lon="-0.7325">
        <ele>161.183</ele>
        <time>2016-09-25T19:25:22Z</time>
      </trkpt>
      <trkpt lat="43.36846" lon="-0.73229">
        <ele>155.725</ele>
        <time>2016-09-25T19:25:42Z</time>
      </trkpt>
      <trkpt lat="43.36805" lon="-0.73173">
        <ele>157.317</ele>
        <time>2016-09-25T19:26:02Z</time>
      </trkpt>
      <trkpt lat="43.36768" lon="-0.73136">
        <ele>159.208</ele>
        <time>2016-09-25T19:26:22Z</time>
      </trkpt>
      <trkpt lat="43.36713" lon="-0.73197">
        <ele>171.534</ele>
        <time>2016-09-25T19:26:42Z</time>
      </trkpt>
      <trkpt lat="43.36696" lon="-0.73321">
        <ele>180.431</ele>
        <time>2016-09-25T19:27:02Z</time>
      </trkpt>
      <trkpt lat="43.36705" lon="-0.73407">
        <ele>183.51</ele>
        <time>2016-09-25T19:27:22Z</time>
      </trkpt>
      <trkpt lat="43.36739" lon="-0.73533">
        <ele>188.869</ele>
        <time>2016-09-25T19:27:42Z</time>
      </trkpt>
      <trkpt lat="43.36719" lon="-0.73602">
        <ele>195.625</ele>
        <time>2016-09-25T19:28:02Z</time>
      </trkpt>
      <trkpt lat="43.36671" lon="-0.73684">
        <ele>203.936</ele>
        <time>2016-09-25T19:28:22Z</time>
      </trkpt>
      <trkpt lat="43.3661" lon="-0.73877">
        <ele>223.429</ele>
        <time>2016-09-25T19:28:42Z</time>
      </trkpt>
      <trkpt lat="43.36573" lon="-0.73935">
        <ele>230.438</ele>
        <time>2016-09-25T19:29:02Z</time>
      </trkpt>
      <trkpt lat="43.36529" lon="-0.73958">
        <ele>240.846</ele>
        <time>2016-09-25T19:29:22Z</time>
      </trkpt>
      <trkpt lat="43.3646" lon="-0.74029">
        <ele>240.888</ele>
        <time>2016-09-25T19:29:42Z</time>
      </trkpt>
      <trkpt lat="43.36416" lon="-0.74033">
        <ele>245.2</ele>
        <time>2016-09-25T19:30:02Z</time>
      </trkpt>
      <trkpt lat="43.3638" lon="-0.74063">
        <ele>243.1</ele>
        <time>2016-09-25T19:30:22Z</time>
      </trkpt>
      <trkpt lat="43.36334" lon="-0.74036">
        <ele>240.31</ele>
        <time>2016-09-25T19:30:42Z</time>
      </trkpt>
      <trkpt lat="43.3621" lon="-0.7395">
        <ele>247.2</ele>
        <time>2016-09-25T19:31:02Z</time>
      </trkpt>
      <trkpt lat="43.35978" lon="-0.73821">
        <ele>249.526</ele>
        <time>2016-09-25T19:31:22Z</time>
      </trkpt>
      <trkpt lat="43.35925" lon="-0.73754">
        <ele>250.015</ele>
        <time>2016-09-25T19:31:42Z</time>
      </trkpt>
      <trkpt lat="43.35594" lon="-0.73613">
        <ele>256.641</ele>
        <time>2016-09-25T19:32:02Z</time>
      </trkpt>
      <trkpt lat="43.35498" lon="-0.73604">
        <ele>256.992</ele>
        <time>2016-09-25T19:32:22Z</time>
      </trkpt>
      <trkpt lat="43.35463" lon="-0.73581">
        <ele>256.675</ele>
        <time>2016-09-25T19:32:42Z</time>
      </trkpt>
      <trkpt lat="43.35284" lon="-0.7337">
        <ele>258.9</ele>
        <time>2016-09-25T19:33:02Z</time>
      </trkpt>
      <trkpt lat="43.35187" lon="-0.73317">
        <ele>257.596</ele>
        <time>2016-09-25T19:33:22Z</time>
      </trkpt>
      <trkpt lat="43.35091" lon="-0.7324">
        <ele>259</ele>
      </trkpt>
      <trkpt lat="43.35067" lon="-0.73288">
        <ele>260.4</ele>
        <time>2016-09-25T19:34:02Z</time>
      </trkpt>
      <trkpt lat="43.35053" lon="-0.73302">
        <ele>259.4</ele>
      </trkpt>
      <trkpt lat="43.34967" lon="-0.73321">
        <ele>260.108</ele>
        <time>2016-09-25T19:34:22Z</time>
      </trkpt>
      <trkpt lat="43.34878" lon="-0.73378">
        <ele>259.1</ele>
      </trkpt>
      <trkpt lat="43.34788" lon="-0.73443">
        <ele>254.245</ele>
        <time>2016-09-25T19:34:42Z</time>
      </trkpt>
      <trkpt lat="43.34578" lon="-0.73638">
        <ele>243</ele>
        <time>2016-09-25T19:35:02Z</time>
      </trkpt>
      <trkpt lat="43.3445" lon="-0.73636">
        <ele>229.4</ele>
        <time>2016-09-25T19:35:22Z</time>
      </trkpt>
      <trkpt lat="43.34443" lon="-0.73635">
        <ele>227.6</ele>
      </trkpt>
      <trkpt lat="43.34402" lon="-0.73677">
        <ele>218.75</ele>
        <time>2016-09-25T19:35:42Z</time>
      </trkpt>
      <trkpt lat="43.34332" lon="-0.73701">
        <ele>208.666</ele>
        <time>2016-09-25T19:36:02Z</time>
      </trkpt>
      <trkpt lat="43.34238" lon="-0.73662">
        <ele>193.147</ele>
        <time>2016-09-25T19:36:22Z</time>
      </trkpt>
      <trkpt lat="43.34208" lon="-0.73654">
        <ele>188.8</ele>
      </trkpt>
      <trkpt lat="43.34149" lon="-0.73666">
        <ele>180.98</ele>
        <time>2016-09-25T19:36:42Z</time>
      </trkpt>
      <trkpt lat="43.3412" lon="-0.73703">
        <ele>178.269</ele>
        <time>2016-09-25T19:37:02Z</time>
      </trkpt>
      <trkpt lat="43.34075" lon="-0.73688">
        <ele>170.7</ele>
        <time>2016-09-25T19:37:22Z</time>
      </trkpt>
      <trkpt lat="43.34049" lon="-0.73693">
        <ele>168.6</ele>
        <time>2016-09-25T19:37:42Z</time>
      </trkpt>
      <trkpt lat="43.34027" lon="-0.73693">
        <ele>167.8</ele>
      </trkpt>
      <trkpt lat="43.34006" lon="-0.73699">
        <ele>166</ele>
        <time>2016-09-25T19:38:02Z</time>
      </trkpt>
      <trkpt lat="43.33988" lon="-0.73696">
        <ele>163.8</ele>
        <time>2016-09-25T19:38:22Z</time>
      </trkpt>
      <trkpt lat="43.33966" lon="-0.73717">
        <ele>162.6</ele>
      </trkpt>
      <trkpt lat="43.33936" lon="-0.73724">
        <ele>160.293</ele>
        <time>2016-09-25T19:38:42Z</time>
      </trkpt>
      <trkpt lat="43.3387" lon="-0.7378">
        <ele>160.17</ele>
        <time>2016-09-25T19:39:02Z</time>
      </trkpt>
      <trkpt lat="43.33808" lon="-0.73849">
        <ele>152.499</ele>
        <time>2016-09-25T19:39:22Z</time>
      </trkpt>
      <trkpt lat="43.33772" lon="-0.74042">
        <ele>157.518</ele>
        <time>2016-09-25T19:39:42Z</time>
      </trkpt>
      <trkpt lat="43.33794" lon="-0.74218">
        <ele>148.744</ele>
        <time>2016-09-25T19:40:02Z</time>
      </trkpt>
      <trkpt lat="43.33778" lon="-0.74361">
        <ele>149</ele>
        <time>2016-09-25T19:40:22Z</time>
      </trkpt>
      <trkpt lat="43.33762" lon="-0.7443">
        <ele>145.028</ele>
        <time>2016-09-25T19:40:42Z</time>
      </trkpt>
      <trkpt lat="43.33756" lon="-0.74628">
        <ele>142.997</ele>
        <time>2016-09-25T19:41:02Z</time>
      </trkpt>
      <trkpt lat="43.33783" lon="-0.74696">
        <ele>141.976</ele>
        <time>2016-09-25T19:41:22Z</time>
      </trkpt>
      <trkpt lat="43.338" lon="-0.74802">
        <ele>141.79</ele>
        <time>2016-09-25T19:41:42Z</time>
      </trkpt>
      <trkpt lat="43.33789" lon="-0.74971">
        <ele>140.819</ele>
        <time>2016-09-25T19:42:02Z</time>
      </trkpt>
      <trkpt lat="43.3377" lon="-0.75033">
        <ele>140.708</ele>
        <time>2016-09-25T19:42:22Z</time>
      </trkpt>
      <trkpt lat="43.33762" lon="-0.75216">
        <ele>139.053</ele>
        <time>2016-09-25T19:42:42Z</time>
      </trkpt>
      <trkpt lat="43.33781" lon="-0.75392">
        <ele>137.01</ele>
        <time>2016-09-25T19:43:02Z</time>
      </trkpt>
      <trkpt lat="43.33762" lon="-0.7554">
        <ele>136.619</ele>
        <time>2016-09-25T19:43:22Z</time>
      </trkpt>
      <trkpt lat="43.33698" lon="-0.75709">
        <ele>138.368</ele>
        <time>2016-09-25T19:43:42Z</time>
      </trkpt>
      <trkpt lat="43.33739" lon="-0.75887">
        <ele>133.564</ele>
        <time>2016-09-25T19:44:02Z</time>
      </trkpt>
      <trkpt lat="43.33787" lon="-0.75998">
        <ele>129.4</ele>
      </trkpt>
      <trkpt lat="43.33785" lon="-0.76009">
        <ele>129.3</ele>
        <time>2016-09-25T19:44:22Z</time>
      </trkpt>
      <trkpt lat="43.33745" lon="-0.76054">
        <ele>129.2</ele>
        <time>2016-09-25T19:44:42Z</time>
      </trkpt>
      <trkpt lat="43.33698" lon="-0.76098">
        <ele>128.097</ele>
        <time>2016-09-25T19:45:02Z</time>
      </trkpt>
      <trkpt lat="43.33613" lon="-0.7618">
        <ele>128.5</ele>
      </trkpt>
      <trkpt lat="43.33519" lon="-0.76278">
        <ele>127.067</ele>
        <time>2016-09-25T19:45:22Z</time>
      </trkpt>
      <trkpt lat="43.33467" lon="-0.764">
        <ele>126.081</ele>
        <time>2016-09-25T19:45:42Z</time>
      </trkpt>
      <trkpt lat="43.33394" lon="-0.76359">
        <ele>126.019</ele>
        <time>2016-09-25T19:46:02Z</time>
      </trkpt>
      <trkpt lat="43.33338" lon="-0.76289">
        <ele>127.608</ele>
        <time>2016-09-25T19:46:22Z</time>
      </trkpt>
      <trkpt lat="43.33255" lon="-0.76235">
        <ele>129.082</ele>
        <time>2016-09-25T19:46:42Z</time>
      </trkpt>
      <trkpt lat="43.33151" lon="-0.76229">
        <ele>128.889</ele>
        <time>2016-09-25T19:47:02Z</time>
      </trkpt>
      <trkpt lat="43.33102" lon="-0.76186">
        <ele>129.088</ele>
        <time>2016-09-25T19:47:22Z</time>
      </trkpt>
      <trkpt lat="43.33043" lon="-0.76106">
        <ele>129.217</ele>
        <time>2016-09-25T19:47:42Z</time>
      </trkpt>
      <trkpt lat="43.32996" lon="-0.76076">
        <ele>129.363</ele>
        <time>2016-09-25T19:48:02Z</time>
      </trkpt>
      <trkpt lat="43.3287" lon="-0.75905">
        <ele>131.034</ele>
        <time>2016-09-25T19:48:22Z</time>
      </trkpt>
      <trkpt lat="43.32771" lon="-0.75741">
        <ele>132.067</ele>
        <time>2016-09-25T19:48:42Z</time>
      </trkpt>
      <trkpt lat="43.32665" lon="-0.75628">
        <ele>132.456</ele>
        <time>2016-09-25T19:49:02Z</time>
      </trkpt>
      <trkpt lat="43.32545" lon="-0.75565">
        <ele>132.494</ele>
        <time>2016-09-25T19:49:22Z</time>
      </trkpt>
      <trkpt lat="43.32433" lon="-0.75456">
        <ele>130.057</ele>
        <time>2016-09-25T19:49:42Z</time>
      </trkpt>
      <trkpt lat="43.3242" lon="-0.7543">
        <ele>130.022</ele>
        <time>2016-09-25T19:50:02Z</time>
      </trkpt>
      <trkpt lat="43.32353" lon="-0.75415">
        <ele>132.308</ele>
        <time>2019-03-30T18:28:05Z</time>
      </trkpt>
      <trkpt lat="43.32258" lon="-0.75558">
        <ele>131.065</ele>
        <time>2019-03-30T18:28:25Z</time>
      </trkpt>
      <trkpt lat="43.32194" lon="-0.75693">
        <ele>128</ele>
        <time>2016-09-25T19:51:02Z</time>
      </trkpt>
      <trkpt lat="43.32115" lon="-0.75716">
        <ele>127</ele>
      </trkpt>
      <trkpt lat="43.32085" lon="-0.75745">
        <ele>127.8</ele>
      </trkpt>
      <trkpt lat="43.32063" lon="-0.75734">
        <ele>127.8</ele>
      </trkpt>
      <trkpt lat="43.32034" lon="-0.75664">
        <ele>128.1</ele>
      </trkpt>
      <trkpt lat="43.32014" lon="-0.75665">
        <ele>128.5</ele>
        <time>2016-09-25T19:51:22Z</time>
      </trkpt>
      <trkpt lat="43.32037" lon="-0.75665">
        <ele>128.1</ele>
      </trkpt>
      <trkpt lat="43.32078" lon="-0.75785">
        <ele>127.8</ele>
      </trkpt>
      <trkpt lat="43.32101" lon="-0.75859">
        <ele>127</ele>
      </trkpt>
      <trkpt lat="43.32134" lon="-0.7593">
        <ele>124.09</ele>
        <time>2016-09-25T19:51:42Z</time>
      </trkpt>
      <trkpt lat="43.32342" lon="-0.76198">
        <ele>120.066</ele>
        <time>2019-03-30T18:29:45Z</time>
      </trkpt>
      <trkpt lat="43.3232" lon="-0.7623">
        <ele>120.087</ele>
        <time>2019-03-30T18:30:05Z</time>
      </trkpt>
      <trkpt lat="43.3231" lon="-0.7625">
        <ele>120.05</ele>
        <time>2019-03-30T18:30:25Z</time>
      </trkpt>
      <trkpt lat="43.32267" lon="-0.76271">
        <ele>120.149</ele>
        <time>2019-03-30T18:30:45Z</time>
      </trkpt>
      <trkpt lat="43.32266" lon="-0.76279">
        <ele>120.031</ele>
        <time>2019-03-30T18:31:05Z</time>
      </trkpt>
      <trkpt lat="43.32243" lon="-0.76285">
        <ele>120.261</ele>
        <time>2019-03-30T18:31:25Z</time>
      </trkpt>
      <trkpt lat="43.3223" lon="-0.76314">
        <ele>118.307</ele>
        <time>2016-09-25T19:53:02Z</time>
      </trkpt>
      <trkpt lat="43.3228" lon="-0.76533">
        <ele>119.308</ele>
        <time>2016-09-25T19:53:22Z</time>
      </trkpt>
      <trkpt lat="43.32387" lon="-0.76625">
        <ele>120.079</ele>
        <time>2016-09-25T19:53:42Z</time>
      </trkpt>
      <trkpt lat="43.32495" lon="-0.76988">
        <ele>122.646</ele>
        <time>2016-09-25T19:54:02Z</time>
      </trkpt>
      <trkpt lat="43.32494" lon="-0.77374">
        <ele>126.015</ele>
        <time>2016-09-25T19:54:22Z</time>
      </trkpt>
      <trkpt lat="43.32383" lon="-0.77971">
        <ele>134.394</ele>
        <time>2016-09-25T19:54:42Z</time>
      </trkpt>
      <trkpt lat="43.32412" lon="-0.7804">
        <ele>143.42</ele>
        <time>2016-09-25T19:55:02Z</time>
      </trkpt>
      <trkpt lat="43.32607" lon="-0.782">
        <ele>157.041</ele>
        <time>2016-09-25T19:55:22Z</time>
      </trkpt>
      <trkpt lat="43.32667" lon="-0.78222">
        <ele>156.034</ele>
        <time>2016-09-25T19:55:42Z</time>
      </trkpt>
      <trkpt lat="43.32774" lon="-0.782">
        <ele>155.253</ele>
        <time>2016-09-25T19:56:02Z</time>
      </trkpt>
      <trkpt lat="43.32848" lon="-0.78241">
        <ele>155.829</ele>
        <time>2016-09-25T19:56:22Z</time>
      </trkpt>
      <trkpt lat="43.32846" lon="-0.78415">
        <ele>157.5</ele>
        <time>2016-09-25T19:56:42Z</time>
      </trkpt>
      <trkpt lat="43.32857" lon="-0.78621">
        <ele>158.12</ele>
        <time>2016-09-25T19:57:02Z</time>
      </trkpt>
      <trkpt lat="43.32876" lon="-0.78726">
        <ele>156.508</ele>
        <time>2016-09-25T19:57:22Z</time>
      </trkpt>
      <trkpt lat="43.33062" lon="-0.79001">
        <ele>155.058</ele>
        <time>2016-09-25T19:57:42Z</time>
      </trkpt>
      <trkpt lat="43.33018" lon="-0.79065">
        <ele>150.735</ele>
        <time>2016-09-25T19:58:02Z</time>
      </trkpt>
      <trkpt lat="43.33034" lon="-0.79168">
        <ele>144.694</ele>
        <time>2016-09-25T19:58:22Z</time>
      </trkpt>
      <trkpt lat="43.32974" lon="-0.79241">
        <ele>135.263</ele>
        <time>2016-09-25T19:58:42Z</time>
      </trkpt>
      <trkpt lat="43.32981" lon="-0.79344">
        <ele>130.929</ele>
        <time>2016-09-25T19:59:02Z</time>
      </trkpt>
      <trkpt lat="43.32954" lon="-0.79512">
        <ele>123.69</ele>
        <time>2016-09-25T19:59:22Z</time>
      </trkpt>
      <trkpt lat="43.32904" lon="-0.79593">
        <ele>122.643</ele>
        <time>2016-09-25T19:59:42Z</time>
      </trkpt>
      <trkpt lat="43.32737" lon="-0.79683">
        <ele>126.982</ele>
        <time>2016-09-25T20:00:02Z</time>
      </trkpt>
      <trkpt lat="43.32704" lon="-0.79724">
        <ele>124.938</ele>
        <time>2016-09-25T20:00:22Z</time>
      </trkpt>
      <trkpt lat="43.32579" lon="-0.79838">
        <ele>118.17</ele>
        <time>2016-09-25T20:00:42Z</time>
      </trkpt>
      <trkpt lat="43.32537" lon="-0.79844">
        <ele>119.017</ele>
        <time>2016-09-25T20:01:02Z</time>
      </trkpt>
      <trkpt lat="43.32609" lon="-0.79988">
        <ele>118.008</ele>
        <time>2016-09-25T20:01:22Z</time>
      </trkpt>
      <trkpt lat="43.32646" lon="-0.80226">
        <ele>119.039</ele>
        <time>2016-09-25T20:01:42Z</time>
      </trkpt>
      <trkpt lat="43.32637" lon="-0.80314">
        <ele>119.316</ele>
        <time>2016-09-25T20:02:02Z</time>
      </trkpt>
      <trkpt lat="43.32592" lon="-0.80415">
        <ele>123.655</ele>
        <time>2016-09-25T20:02:22Z</time>
      </trkpt>
      <trkpt lat="43.32586" lon="-0.80492">
        <ele>126.694</ele>
        <time>2016-09-25T20:02:42Z</time>
      </trkpt>
      <trkpt lat="43.32592" lon="-0.80522">
        <ele>127.55</ele>
        <time>2021-01-03T20:26:40Z</time>
      </trkpt>
      <trkpt lat="43.32661" lon="-0.80619">
        <ele>139.611</ele>
        <time>2021-01-03T20:27:00Z</time>
      </trkpt>
      <trkpt lat="43.32701" lon="-0.80607">
        <ele>135.1</ele>
        <time>2016-09-25T20:04:42Z</time>
      </trkpt>
      <trkpt lat="43.32747" lon="-0.806">
        <ele>132.2</ele>
        <time>2021-01-03T20:27:40Z</time>
      </trkpt>
      <trkpt lat="43.32778" lon="-0.80596">
        <ele>129.8</ele>
        <time>2021-01-03T20:28:00Z</time>
      </trkpt>
      <trkpt lat="43.32807" lon="-0.80618">
        <ele>128.1</ele>
        <time>2021-01-03T20:28:20Z</time>
      </trkpt>
      <trkpt lat="43.32835" lon="-0.8064">
        <ele>125.7</ele>
        <time>2016-09-25T20:06:02Z</time>
      </trkpt>
      <trkpt lat="43.32883" lon="-0.80673">
        <ele>120.008</ele>
        <time>2021-01-03T20:29:00Z</time>
      </trkpt>
      <trkpt lat="43.32898" lon="-0.80724">
        <ele>120.028</ele>
        <time>2016-09-25T20:06:42Z</time>
      </trkpt>
      <trkpt lat="43.32924" lon="-0.80715">
        <ele>120.035</ele>
        <time>2016-09-25T20:07:02Z</time>
      </trkpt>
      <trkpt lat="43.32966" lon="-0.80752">
        <ele>120.084</ele>
        <time>2016-09-25T20:07:22Z</time>
      </trkpt>
      <trkpt lat="43.32898" lon="-0.80945">
        <ele>121.723</ele>
        <time>2016-09-25T20:07:42Z</time>
      </trkpt>
      <trkpt lat="43.3277" lon="-0.81029">
        <ele>122.039</ele>
        <time>2016-09-25T20:08:02Z</time>
      </trkpt>
      <trkpt lat="43.32723" lon="-0.81046">
        <ele>123.09</ele>
        <time>2016-09-25T20:08:22Z</time>
      </trkpt>
      <trkpt lat="43.32639" lon="-0.8117">
        <ele>130.063</ele>
        <time>2016-09-25T20:08:42Z</time>
      </trkpt>
      <trkpt lat="43.32612" lon="-0.81301">
        <ele>130.052</ele>
        <time>2016-09-25T20:09:02Z</time>
      </trkpt>
      <trkpt lat="43.32515" lon="-0.814">
        <ele>128.946</ele>
        <time>2016-09-25T20:09:22Z</time>
      </trkpt>
      <trkpt lat="43.3247" lon="-0.81496">
        <ele>128.988</ele>
        <time>2016-09-25T20:09:42Z</time>
      </trkpt>
      <trkpt lat="43.32473" lon="-0.81604">
        <ele>126.416</ele>
        <time>2016-09-25T20:10:02Z</time>
      </trkpt>
      <trkpt lat="43.32509" lon="-0.81797">
        <ele>126.708</ele>
        <time>2016-09-25T20:10:22Z</time>
      </trkpt>
      <trkpt lat="43.32451" lon="-0.82031">
        <ele>126.67</ele>
        <time>2016-09-25T20:10:42Z</time>
      </trkpt>
      <trkpt lat="43.32476" lon="-0.82059">
        <ele>128.377</ele>
        <time>2016-09-25T20:11:02Z</time>
      </trkpt>
      <trkpt lat="43.32465" lon="-0.8214">
        <ele>128.596</ele>
        <time>2016-09-25T20:11:22Z</time>
      </trkpt>
      <trkpt lat="43.32494" lon="-0.82164">
        <ele>132.745</ele>
        <time>2016-09-25T20:11:42Z</time>
      </trkpt>
      <trkpt lat="43.32515" lon="-0.8223">
        <ele>138.781</ele>
        <time>2016-09-25T20:12:02Z</time>
      </trkpt>
      <trkpt lat="43.32553" lon="-0.82265">
        <ele>142.392</ele>
        <time>2016-09-25T20:12:22Z</time>
      </trkpt>
      <trkpt lat="43.32558" lon="-0.82297">
        <ele>143.375</ele>
        <time>2016-09-25T20:12:42Z</time>
      </trkpt>
      <trkpt lat="43.32575" lon="-0.82305">
        <ele>146.474</ele>
        <time>2016-09-25T20:13:02Z</time>
      </trkpt>
      <trkpt lat="43.32651" lon="-0.82458">
        <ele>149.619</ele>
        <time>2016-09-25T20:13:22Z</time>
      </trkpt>
      <trkpt lat="43.32684" lon="-0.82481">
        <ele>151.509</ele>
        <time>2016-09-25T20:13:42Z</time>
      </trkpt>
      <trkpt lat="43.32756" lon="-0.82623">
        <ele>158.819</ele>
        <time>2016-09-25T20:14:02Z</time>
      </trkpt>
      <trkpt lat="43.32795" lon="-0.82571">
        <ele>159.708</ele>
        <time>2016-09-25T20:14:22Z</time>
      </trkpt>
      <trkpt lat="43.32959" lon="-0.82745">
        <ele>160.027</ele>
        <time>2016-09-25T20:14:42Z</time>
      </trkpt>
      <trkpt lat="43.33119" lon="-0.8288">
        <ele>166.334</ele>
        <time>2016-09-25T20:15:02Z</time>
      </trkpt>
      <trkpt lat="43.33165" lon="-0.83005">
        <ele>170.283</ele>
        <time>2016-09-25T20:15:22Z</time>
      </trkpt>
      <trkpt lat="43.33162" lon="-0.83095">
        <ele>170.722</ele>
        <time>2016-09-25T20:15:42Z</time>
      </trkpt>
      <trkpt lat="43.33023" lon="-0.83005">
        <ele>165.068</ele>
        <time>2016-09-25T20:16:02Z</time>
      </trkpt>
      <trkpt lat="43.32932" lon="-0.83018">
        <ele>159.349</ele>
        <time>2016-09-25T20:16:22Z</time>
      </trkpt>
      <trkpt lat="43.32692" lon="-0.82938">
        <ele>141.112</ele>
        <time>2016-09-25T20:16:42Z</time>
      </trkpt>
      <trkpt lat="43.32625" lon="-0.83024">
        <ele>135.021</ele>
        <time>2016-09-25T20:17:02Z</time>
      </trkpt>
      <trkpt lat="43.32646" lon="-0.83095">
        <ele>135.057</ele>
        <time>2016-09-25T20:17:22Z</time>
      </trkpt>
      <trkpt lat="43.32579" lon="-0.83181">
        <ele>141.7</ele>
        <time>2016-09-25T20:17:42Z</time>
      </trkpt>
      <trkpt lat="43.32539" lon="-0.8314">
        <ele>148.02</ele>
        <time>2016-09-25T20:18:02Z</time>
      </trkpt>
      <trkpt lat="43.32506" lon="-0.83155">
        <ele>152.808</ele>
        <time>2016-09-25T20:18:22Z</time>
      </trkpt>
      <trkpt lat="43.32472" lon="-0.83256">
        <ele>160.038</ele>
        <time>2016-09-25T20:19:02Z</time>
      </trkpt>
      <trkpt lat="43.32431" lon="-0.83307">
        <ele>160.017</ele>
        <time>2016-09-25T20:19:22Z</time>
      </trkpt>
      <trkpt lat="43.32392" lon="-0.83425">
        <ele>161.846</ele>
        <time>2016-09-25T20:19:42Z</time>
      </trkpt>
      <trkpt lat="43.32195" lon="-0.83507">
        <ele>170.052</ele>
        <time>2016-09-25T20:20:02Z</time>
      </trkpt>
      <trkpt lat="43.3203" lon="-0.83531">
        <ele>178.563</ele>
        <time>2016-09-25T20:20:22Z</time>
      </trkpt>
      <trkpt lat="43.31981" lon="-0.83556">
        <ele>180.076</ele>
        <time>2016-09-25T20:20:42Z</time>
      </trkpt>
      <trkpt lat="43.31739" lon="-0.83636">
        <ele>192.775</ele>
        <time>2016-09-25T20:21:02Z</time>
      </trkpt>
      <trkpt lat="43.31669" lon="-0.8381">
        <ele>193.632</ele>
        <time>2016-09-25T20:21:22Z</time>
      </trkpt>
      <trkpt lat="43.3163" lon="-0.83839">
        <ele>190.292</ele>
        <time>2019-03-30T19:00:25Z</time>
      </trkpt>
      <trkpt lat="43.31582" lon="-0.83979">
        <ele>180.111</ele>
        <time>2019-03-30T19:00:45Z</time>
      </trkpt>
      <trkpt lat="43.31531" lon="-0.84041">
        <ele>170.308</ele>
        <time>2019-03-30T19:01:05Z</time>
      </trkpt>
      <trkpt lat="43.31195" lon="-0.84136">
        <ele>170.049</ele>
        <time>2016-09-25T20:23:02Z</time>
      </trkpt>
      <trkpt lat="43.31188" lon="-0.84174">
        <ele>170.836</ele>
        <time>2016-09-25T20:23:22Z</time>
      </trkpt>
      <trkpt lat="43.31202" lon="-0.84299">
        <ele>162.725</ele>
        <time>2016-09-25T20:23:42Z</time>
      </trkpt>
      <trkpt lat="43.31184" lon="-0.84419">
        <ele>155.024</ele>
        <time>2016-09-25T20:24:02Z</time>
      </trkpt>
      <trkpt lat="43.31062" lon="-0.847">
        <ele>122.02</ele>
        <time>2016-09-25T20:24:22Z</time>
      </trkpt>
      <trkpt lat="43.31073" lon="-0.84788">
        <ele>119.851</ele>
        <time>2016-09-25T20:24:42Z</time>
      </trkpt>
      <trkpt lat="43.30998" lon="-0.8493">
        <ele>119.244</ele>
        <time>2016-09-25T20:25:02Z</time>
      </trkpt>
      <trkpt lat="43.30928" lon="-0.85118">
        <ele>115.063</ele>
        <time>2016-09-25T20:25:22Z</time>
      </trkpt>
      <trkpt lat="43.30926" lon="-0.85256">
        <ele>115.759</ele>
        <time>2016-09-25T20:25:42Z</time>
      </trkpt>
      <trkpt lat="43.30968" lon="-0.85462">
        <ele>117.603</ele>
        <time>2016-09-25T20:26:02Z</time>
      </trkpt>
      <trkpt lat="43.31021" lon="-0.85535">
        <ele>118.623</ele>
        <time>2016-09-25T20:26:22Z</time>
      </trkpt>
      <trkpt lat="43.30956" lon="-0.86021">
        <ele>124.808</ele>
        <time>2019-03-30T19:05:05Z</time>
      </trkpt>
      <trkpt lat="43.30966" lon="-0.86103">
        <ele>122.631</ele>
        <time>2019-03-30T19:05:25Z</time>
      </trkpt>
      <trkpt lat="43.31057" lon="-0.86292">
        <ele>118.538</ele>
        <time>2016-09-25T20:27:02Z</time>
      </trkpt>
      <trkpt lat="43.31074" lon="-0.86414">
        <ele>113.227</ele>
        <time>2016-09-25T20:27:22Z</time>
      </trkpt>
      <trkpt lat="43.31034" lon="-0.86507">
        <ele>110.916</ele>
        <time>2016-09-25T20:27:42Z</time>
      </trkpt>
      <trkpt lat="43.31009" lon="-0.86635">
        <ele>103.172</ele>
        <time>2016-09-25T20:28:02Z</time>
      </trkpt>
      <trkpt lat="43.31001" lon="-0.86814">
        <ele>101.093</ele>
        <time>2016-09-25T20:28:22Z</time>
      </trkpt>
      <trkpt lat="43.31076" lon="-0.86895">
        <ele>101.096</ele>
        <time>2016-09-25T20:28:42Z</time>
      </trkpt>
      <trkpt lat="43.31196" lon="-0.86872">
        <ele>102.025</ele>
        <time>2016-09-25T20:29:02Z</time>
      </trkpt>
      <trkpt lat="43.31309" lon="-0.8688">
        <ele>102.085</ele>
        <time>2016-09-25T20:29:22Z</time>
      </trkpt>
      <trkpt lat="43.31301" lon="-0.8697">
        <ele>101.9</ele>
        <time>2016-09-25T20:29:42Z</time>
      </trkpt>
      <trkpt lat="43.313" lon="-0.86988">
        <ele>101.4</ele>
      </trkpt>
      <trkpt lat="43.31153" lon="-0.86966">
        <ele>101</ele>
        <time>2016-09-25T20:30:42Z</time>
      </trkpt>
      <trkpt lat="43.30926" lon="-0.86949">
        <ele>100.061</ele>
        <time>2016-09-25T20:31:02Z</time>
      </trkpt>
      <trkpt lat="43.30725" lon="-0.86904">
        <ele>96.48</ele>
        <time>2016-09-25T20:31:22Z</time>
      </trkpt>
      <trkpt lat="43.30448" lon="-0.87258">
        <ele>105.369</ele>
        <time>2016-09-25T20:31:42Z</time>
      </trkpt>
      <trkpt lat="43.30444" lon="-0.87381">
        <ele>112.7</ele>
      </trkpt>
      <trkpt lat="43.30494" lon="-0.87375">
        <ele>112</ele>
        <time>2016-09-25T20:32:02Z</time>
      </trkpt>
      <trkpt lat="43.30432" lon="-0.87389">
        <ele>113</ele>
      </trkpt>
      <trkpt lat="43.30405" lon="-0.87414">
        <ele>110.056</ele>
        <time>2016-09-25T20:32:22Z</time>
      </trkpt>
      <trkpt lat="43.30395" lon="-0.87468">
        <ele>109.649</ele>
        <time>2016-09-25T20:32:42Z</time>
      </trkpt>
      <trkpt lat="43.30439" lon="-0.8759">
        <ele>105.298</ele>
        <time>2016-09-25T20:33:02Z</time>
      </trkpt>
      <trkpt lat="43.30431" lon="-0.87668">
        <ele>105.077</ele>
        <time>2016-09-25T20:33:22Z</time>
      </trkpt>
      <trkpt lat="43.30584" lon="-0.87912">
        <ele>112.861</ele>
        <time>2016-09-25T20:33:42Z</time>
      </trkpt>
      <trkpt lat="43.30711" lon="-0.8802">
        <ele>113.027</ele>
        <time>2016-09-25T20:34:02Z</time>
      </trkpt>
      <trkpt lat="43.3091" lon="-0.88397">
        <ele>115.008</ele>
        <time>2016-09-25T20:34:22Z</time>
      </trkpt>
      <trkpt lat="43.31095" lon="-0.88867">
        <ele>123.473</ele>
        <time>2016-09-25T20:34:42Z</time>
      </trkpt>
      <trkpt lat="43.31095" lon="-0.88925">
        <ele>124.44</ele>
        <time>2016-09-25T20:35:02Z</time>
      </trkpt>
      <trkpt lat="43.31149" lon="-0.89135">
        <ele>129.829</ele>
        <time>2016-09-25T20:35:22Z</time>
      </trkpt>
      <trkpt lat="43.3129" lon="-0.89421">
        <ele>145.648</ele>
        <time>2016-09-25T20:35:42Z</time>
      </trkpt>
      <trkpt lat="43.31368" lon="-0.89792">
        <ele>170.054</ele>
        <time>2016-09-25T20:36:02Z</time>
      </trkpt>
      <trkpt lat="43.31362" lon="-0.89833">
        <ele>169.955</ele>
        <time>2016-09-25T20:36:22Z</time>
      </trkpt>
      <trkpt lat="43.31254" lon="-0.89822">
        <ele>175.198</ele>
        <time>2016-09-25T20:36:42Z</time>
      </trkpt>
      <trkpt lat="43.31198" lon="-0.89867">
        <ele>179.077</ele>
        <time>2016-09-25T20:37:02Z</time>
      </trkpt>
      <trkpt lat="43.30993" lon="-0.89835">
        <ele>165.864</ele>
        <time>2016-09-25T20:37:22Z</time>
      </trkpt>
      <trkpt lat="43.30928" lon="-0.89785">
        <ele>165.006</ele>
        <time>2016-09-25T20:37:42Z</time>
      </trkpt>
      <trkpt lat="43.3075" lon="-0.89766">
        <ele>161.416</ele>
        <time>2016-09-25T20:38:02Z</time>
      </trkpt>
      <trkpt lat="43.30754" lon="-0.89899">
        <ele>161.208</ele>
        <time>2016-09-25T20:38:22Z</time>
      </trkpt>
      <trkpt lat="43.30867" lon="-0.9044">
        <ele>134.392</ele>
        <time>2016-09-25T20:38:42Z</time>
      </trkpt>
      <trkpt lat="43.30836" lon="-0.90429">
        <ele>128.639</ele>
        <time>2016-09-25T20:39:02Z</time>
      </trkpt>
      <trkpt lat="43.30882" lon="-0.90534">
        <ele>126.848</ele>
        <time>2016-09-25T20:39:22Z</time>
      </trkpt>
      <trkpt lat="43.31015" lon="-0.90624">
        <ele>110.047</ele>
        <time>2016-09-25T20:39:42Z</time>
      </trkpt>
      <trkpt lat="43.31168" lon="-0.90796">
        <ele>108.373</ele>
        <time>2016-09-25T20:40:02Z</time>
      </trkpt>
      <trkpt lat="43.31246" lon="-0.90843">
        <ele>101.314</ele>
        <time>2016-09-25T20:40:22Z</time>
      </trkpt>
      <trkpt lat="43.31293" lon="-0.90895">
        <ele>103.037</ele>
        <time>2016-09-25T20:40:42Z</time>
      </trkpt>
      <trkpt lat="43.31343" lon="-0.91232">
        <ele>102.896</ele>
        <time>2016-09-25T20:41:02Z</time>
      </trkpt>
      <trkpt lat="43.31432" lon="-0.91483">
        <ele>107.475</ele>
        <time>2016-09-25T20:41:22Z</time>
      </trkpt>
      <trkpt lat="43.31348" lon="-0.91463">
        <ele>105.228</ele>
        <time>2016-09-25T20:41:42Z</time>
      </trkpt>
      <trkpt lat="43.31218" lon="-0.91511">
        <ele>109.12</ele>
        <time>2016-09-25T20:42:02Z</time>
      </trkpt>
      <trkpt lat="43.31071" lon="-0.9162">
        <ele>110.208</ele>
        <time>2016-09-25T20:42:22Z</time>
      </trkpt>
      <trkpt lat="43.309" lon="-0.91695">
        <ele>111.353</ele>
        <time>2016-09-25T20:42:42Z</time>
      </trkpt>
      <trkpt lat="43.30793" lon="-0.91787">
        <ele>115.23</ele>
        <time>2016-09-25T20:43:02Z</time>
      </trkpt>
      <trkpt lat="43.3074" lon="-0.91888">
        <ele>114.689</ele>
        <time>2016-09-25T20:43:22Z</time>
      </trkpt>
      <trkpt lat="43.30659" lon="-0.92127">
        <ele>114.428</ele>
        <time>2016-09-25T20:43:42Z</time>
      </trkpt>
      <trkpt lat="43.30597" lon="-0.92245">
        <ele>114.394</ele>
        <time>2016-09-25T20:44:02Z</time>
      </trkpt>
      <trkpt lat="43.3049" lon="-0.92333">
        <ele>111.665</ele>
        <time>2016-09-25T20:44:22Z</time>
      </trkpt>
      <trkpt lat="43.30389" lon="-0.9236">
        <ele>110.068</ele>
        <time>2016-09-25T20:44:42Z</time>
      </trkpt>
      <trkpt lat="43.30326" lon="-0.92302">
        <ele>111.897</ele>
        <time>2016-09-25T20:45:02Z</time>
      </trkpt>
      <trkpt lat="43.30239" lon="-0.92285">
        <ele>114.455</ele>
        <time>2016-09-25T20:45:22Z</time>
      </trkpt>
      <trkpt lat="43.30142" lon="-0.923">
        <ele>116.707</ele>
        <time>2016-09-25T20:45:42Z</time>
      </trkpt>
      <trkpt lat="43.30094" lon="-0.9233">
        <ele>116.417</ele>
        <time>2016-09-25T20:46:02Z</time>
      </trkpt>
      <trkpt lat="43.29963" lon="-0.9235">
        <ele>120.308</ele>
        <time>2016-09-25T20:46:22Z</time>
      </trkpt>
      <trkpt lat="43.29899" lon="-0.92408">
        <ele>119.661</ele>
        <time>2016-09-25T20:46:42Z</time>
      </trkpt>
      <trkpt lat="43.29839" lon="-0.92365">
        <ele>122.818</ele>
        <time>2016-09-25T20:47:02Z</time>
      </trkpt>
      <trkpt lat="43.29775" lon="-0.92371">
        <ele>123.757</ele>
        <time>2016-09-25T20:47:22Z</time>
      </trkpt>
      <trkpt lat="43.29766" lon="-0.92457">
        <ele>131.136</ele>
        <time>2016-09-25T20:47:42Z</time>
      </trkpt>
      <trkpt lat="43.29647" lon="-0.92652">
        <ele>150.542</ele>
        <time>2016-09-25T20:48:02Z</time>
      </trkpt>
      <trkpt lat="43.29603" lon="-0.9277">
        <ele>164.233</ele>
        <time>2016-09-25T20:48:22Z</time>
      </trkpt>
      <trkpt lat="43.29472" lon="-0.92865">
        <ele>180.026</ele>
        <time>2016-09-25T20:48:42Z</time>
      </trkpt>
      <trkpt lat="43.29424" lon="-0.93006">
        <ele>189.995</ele>
        <time>2016-09-25T20:49:02Z</time>
      </trkpt>
      <trkpt lat="43.29416" lon="-0.93086">
        <ele>196.184</ele>
        <time>2016-09-25T20:49:22Z</time>
      </trkpt>
      <trkpt lat="43.29541" lon="-0.93438">
        <ele>207.107</ele>
        <time>2016-09-25T20:49:42Z</time>
      </trkpt>
      <trkpt lat="43.29547" lon="-0.93579">
        <ele>214.017</ele>
        <time>2016-09-25T20:50:02Z</time>
      </trkpt>
      <trkpt lat="43.29416" lon="-0.93856">
        <ele>199.708</ele>
        <time>2016-09-25T20:50:22Z</time>
      </trkpt>
      <trkpt lat="43.29449" lon="-0.94032">
        <ele>191.714</ele>
        <time>2016-09-25T20:50:42Z</time>
      </trkpt>
      <trkpt lat="43.29541" lon="-0.94086">
        <ele>181.311</ele>
        <time>2016-09-25T20:51:02Z</time>
      </trkpt>
      <trkpt lat="43.2958" lon="-0.94122">
        <ele>180.49</ele>
        <time>2016-09-25T20:51:22Z</time>
      </trkpt>
      <trkpt lat="43.29727" lon="-0.94034">
        <ele>177.949</ele>
        <time>2016-09-25T20:51:42Z</time>
      </trkpt>
      <trkpt lat="43.29866" lon="-0.93923">
        <ele>165.695</ele>
        <time>2016-09-25T20:52:02Z</time>
      </trkpt>
      <trkpt lat="43.29897" lon="-0.93957">
        <ele>173.836</ele>
        <time>2016-09-25T20:52:22Z</time>
      </trkpt>
      <trkpt lat="43.29988" lon="-0.93927">
        <ele>172.189</ele>
        <time>2016-09-25T20:52:42Z</time>
      </trkpt>
      <trkpt lat="43.30053" lon="-0.93841">
        <ele>182.968</ele>
        <time>2016-09-25T20:53:02Z</time>
      </trkpt>
      <trkpt lat="43.3005" lon="-0.93764">
        <ele>182.238</ele>
        <time>2016-09-25T20:53:22Z</time>
      </trkpt>
      <trkpt lat="43.30078" lon="-0.93734">
        <ele>185.07</ele>
        <time>2016-09-25T20:53:42Z</time>
      </trkpt>
      <trkpt lat="43.30147" lon="-0.93753">
        <ele>185.017</ele>
        <time>2016-09-25T20:54:02Z</time>
      </trkpt>
      <trkpt lat="43.30222" lon="-0.9368">
        <ele>176.408</ele>
        <time>2016-09-25T20:54:22Z</time>
      </trkpt>
      <trkpt lat="43.3023" lon="-0.93626">
        <ele>176.079</ele>
        <time>2016-09-25T20:54:42Z</time>
      </trkpt>
      <trkpt lat="43.30284" lon="-0.93609">
        <ele>165.536</ele>
        <time>2016-09-25T20:55:02Z</time>
      </trkpt>
      <trkpt lat="43.30342" lon="-0.93564">
        <ele>163.355</ele>
        <time>2016-09-25T20:55:22Z</time>
      </trkpt>
      <trkpt lat="43.30298" lon="-0.93648">
        <ele>159.144</ele>
        <time>2016-09-25T20:55:42Z</time>
      </trkpt>
      <trkpt lat="43.30326" lon="-0.93747">
        <ele>145.73</ele>
        <time>2016-09-25T20:56:02Z</time>
      </trkpt>
      <trkpt lat="43.30398" lon="-0.93877">
        <ele>129.911</ele>
        <time>2016-09-25T20:56:22Z</time>
      </trkpt>
      <trkpt lat="43.30403" lon="-0.93914">
        <ele>129.584</ele>
        <time>2016-09-25T20:56:42Z</time>
      </trkpt>
      <trkpt lat="43.30444" lon="-0.93965">
        <ele>120.463</ele>
        <time>2016-09-25T20:57:02Z</time>
      </trkpt>
      <trkpt lat="43.30484" lon="-0.94038">
        <ele>117.399</ele>
        <time>2016-09-25T20:57:22Z</time>
      </trkpt>
      <trkpt lat="43.30469" lon="-0.94124">
        <ele>111.307</ele>
        <time>2016-09-25T20:57:42Z</time>
      </trkpt>
      <trkpt lat="43.30465" lon="-0.94197">
        <ele>110.227</ele>
        <time>2016-09-25T20:58:02Z</time>
      </trkpt>
      <trkpt lat="43.30468" lon="-0.94196">
        <ele>107.5</ele>
      </trkpt>
      <trkpt lat="43.30521" lon="-0.94255">
        <ele>104.8</ele>
      </trkpt>
      <trkpt lat="43.30618" lon="-0.94329">
        <ele>101.1</ele>
      </trkpt>
      <trkpt lat="43.30641" lon="-0.94352">
        <ele>101.7</ele>
      </trkpt>
      <trkpt lat="43.3066" lon="-0.9442">
        <ele>103</ele>
      </trkpt>
      <trkpt lat="43.3069" lon="-0.94461">
        <ele>99.9</ele>
      </trkpt>
      <trkpt lat="43.30715" lon="-0.9447">
        <ele>97.5</ele>
      </trkpt>
      <trkpt lat="43.30729" lon="-0.94446">
        <ele>101.3</ele>
      </trkpt>
      <trkpt lat="43.30777" lon="-0.94445">
        <ele>98</ele>
      </trkpt>
      <trkpt lat="43.30818" lon="-0.94466">
        <ele>95.7</ele>
      </trkpt>
      <trkpt lat="43.30824" lon="-0.94474">
        <ele>95</ele>
      </trkpt>
      <trkpt lat="43.30827" lon="-0.94482">
        <ele>95.1</ele>
      </trkpt>
      <trkpt lat="43.30842" lon="-0.94514">
        <ele>95.8</ele>
      </trkpt>
      <trkpt lat="43.30859" lon="-0.94541">
        <ele>97.4</ele>
      </trkpt>
      <trkpt lat="43.30879" lon="-0.94623">
        <ele>102.6</ele>
      </trkpt>
      <trkpt lat="43.30887" lon="-0.94632">
        <ele>102.8</ele>
      </trkpt>
      <trkpt lat="43.30909" lon="-0.94627">
        <ele>102.7</ele>
      </trkpt>
      <trkpt lat="43.30915" lon="-0.94624">
        <ele>102.4</ele>
      </trkpt>
      <trkpt lat="43.30948" lon="-0.94603">
        <ele>100.9</ele>
      </trkpt>
      <trkpt lat="43.30958" lon="-0.94599">
        <ele>101.3</ele>
      </trkpt>
      <trkpt lat="43.3096" lon="-0.94609">
        <ele>102</ele>
      </trkpt>
      <trkpt lat="43.3096" lon="-0.94648">
        <ele>103.7</ele>
      </trkpt>
      <trkpt lat="43.30957" lon="-0.94678">
        <ele>104.1</ele>
      </trkpt>
      <trkpt lat="43.30944" lon="-0.94734">
        <ele>105.4</ele>
      </trkpt>
      <trkpt lat="43.30944" lon="-0.94754">
        <ele>106</ele>
      </trkpt>
      <trkpt lat="43.30954" lon="-0.94811">
        <ele>109.2</ele>
      </trkpt>
      <trkpt lat="43.30955" lon="-0.9485">
        <ele>110</ele>
      </trkpt>
      <trkpt lat="43.30949" lon="-0.94881">
        <ele>109.4</ele>
      </trkpt>
      <trkpt lat="43.30941" lon="-0.94911">
        <ele>110.6</ele>
      </trkpt>
      <trkpt lat="43.30936" lon="-0.94922">
        <ele>111</ele>
      </trkpt>
      <trkpt lat="43.30922" lon="-0.94942">
        <ele>111</ele>
      </trkpt>
      <trkpt lat="43.30884" lon="-0.94988">
        <ele>111.6</ele>
      </trkpt>
      <trkpt lat="43.30846" lon="-0.95026">
        <ele>112</ele>
      </trkpt>
      <trkpt lat="43.30844" lon="-0.95029">
        <ele>112</ele>
      </trkpt>
      <trkpt lat="43.30821" lon="-0.95063">
        <ele>111.8</ele>
      </trkpt>
      <trkpt lat="43.30783" lon="-0.95119">
        <ele>112.5</ele>
      </trkpt>
      <trkpt lat="43.30766" lon="-0.9518">
        <ele>113.5</ele>
      </trkpt>
      <trkpt lat="43.30756" lon="-0.95271">
        <ele>116.8</ele>
      </trkpt>
      <trkpt lat="43.30745" lon="-0.95344">
        <ele>119.9</ele>
      </trkpt>
      <trkpt lat="43.30743" lon="-0.95346">
        <ele>120</ele>
      </trkpt>
      <trkpt lat="43.30695" lon="-0.95451">
        <ele>123.3</ele>
      </trkpt>
      <trkpt lat="43.30651" lon="-0.95538">
        <ele>121.7</ele>
      </trkpt>
      <trkpt lat="43.3064" lon="-0.95547">
        <ele>120.8</ele>
      </trkpt>
      <trkpt lat="43.306" lon="-0.95555">
        <ele>117.8</ele>
      </trkpt>
      <trkpt lat="43.30568" lon="-0.95581">
        <ele>116</ele>
      </trkpt>
      <trkpt lat="43.30573" lon="-0.95602">
        <ele>116.5</ele>
      </trkpt>
      <trkpt lat="43.30584" lon="-0.9564">
        <ele>118.1</ele>
      </trkpt>
      <trkpt lat="43.30606" lon="-0.95693">
        <ele>122.4</ele>
      </trkpt>
      <trkpt lat="43.3062" lon="-0.95777">
        <ele>126.3</ele>
      </trkpt>
      <trkpt lat="43.30626" lon="-0.95801">
        <ele>127.5</ele>
      </trkpt>
      <trkpt lat="43.30635" lon="-0.9583">
        <ele>128.9</ele>
      </trkpt>
      <trkpt lat="43.30636" lon="-0.95844">
        <ele>129.8</ele>
      </trkpt>
      <trkpt lat="43.30631" lon="-0.95857">
        <ele>130.9</ele>
      </trkpt>
      <trkpt lat="43.30574" lon="-0.95909">
        <ele>138.5</ele>
      </trkpt>
      <trkpt lat="43.30607" lon="-0.95963">
        <ele>137.2</ele>
      </trkpt>
      <trkpt lat="43.3062" lon="-0.95984">
        <ele>137.2</ele>
      </trkpt>
      <trkpt lat="43.30705" lon="-0.96126">
        <ele>136.2</ele>
      </trkpt>
      <trkpt lat="43.30706" lon="-0.96127">
        <ele>136.2</ele>
        <extensions>
          <visugpx:TrkExtension xmlns:visugpx="https://www.visugpx.com/editgpx/">
            <visugpx:node>1</visugpx:node>
            </visugpx:TrkExtension>
        </extensions>
      </trkpt>
      <trkpt lat="43.30746" lon="-0.96186">
        <ele>141.1</ele>
      </trkpt>
      <trkpt lat="43.30762" lon="-0.96223">
        <ele>144.5</ele>
      </trkpt>
      <trkpt lat="43.30794" lon="-0.96324">
        <ele>149</ele>
      </trkpt>
      <trkpt lat="43.30816" lon="-0.96374">
        <ele>146.1</ele>
      </trkpt>
      <trkpt lat="43.30843" lon="-0.96448">
        <ele>137.6</ele>
      </trkpt>
      <trkpt lat="43.3085" lon="-0.96476">
        <ele>133.5</ele>
      </trkpt>
      <trkpt lat="43.30848" lon="-0.96507">
        <ele>130.2</ele>
      </trkpt>
      <trkpt lat="43.30842" lon="-0.96542">
        <ele>128.9</ele>
      </trkpt>
      <trkpt lat="43.3085" lon="-0.9656">
        <ele>127.8</ele>
      </trkpt>
      <trkpt lat="43.30864" lon="-0.9657">
        <ele>129.4</ele>
      </trkpt>
      <trkpt lat="43.30888" lon="-0.96558">
        <ele>131</ele>
      </trkpt>
      <trkpt lat="43.30888" lon="-0.96572">
        <ele>132.1</ele>
      </trkpt>
      <trkpt lat="43.30872" lon="-0.9659">
        <ele>133</ele>
      </trkpt>
      <trkpt lat="43.30847" lon="-0.96608">
        <ele>135.4</ele>
      </trkpt>
      <trkpt lat="43.30821" lon="-0.9664">
        <ele>137.9</ele>
      </trkpt>
      <trkpt lat="43.30802" lon="-0.96668">
        <ele>136.9</ele>
      </trkpt>
      <trkpt lat="43.30778" lon="-0.96689">
        <ele>137.6</ele>
        <extensions>
          <visugpx:TrkExtension xmlns:visugpx="https://www.visugpx.com/editgpx/">
            <visugpx:node>2</visugpx:node>
            </visugpx:TrkExtension>
        </extensions>
      </trkpt>
      <trkpt lat="43.30745" lon="-0.96717">
        <ele>139.1</ele>
      </trkpt>
      <trkpt lat="43.30682" lon="-0.96749">
        <ele>145.4</ele>
      </trkpt>
      <trkpt lat="43.30553" lon="-0.96799">
        <ele>154.3</ele>
      </trkpt>
      <trkpt lat="43.30496" lon="-0.96842">
        <ele>158.6</ele>
      </trkpt>
      <trkpt lat="43.30462" lon="-0.96854">
        <ele>159.3</ele>
      </trkpt>
      <trkpt lat="43.3044" lon="-0.9685">
        <ele>159</ele>
      </trkpt>
      <trkpt lat="43.30422" lon="-0.96832">
        <ele>160.7</ele>
      </trkpt>
      <trkpt lat="43.3038" lon="-0.96769">
        <ele>161.8</ele>
      </trkpt>
      <trkpt lat="43.30353" lon="-0.96743">
        <ele>162.9</ele>
      </trkpt>
      <trkpt lat="43.30299" lon="-0.96736">
        <ele>166.9</ele>
      </trkpt>
      <trkpt lat="43.30278" lon="-0.96724">
        <ele>168.9</ele>
        <extensions>
          <visugpx:TrkExtension xmlns:visugpx="https://www.visugpx.com/editgpx/">
            <visugpx:node>3</visugpx:node>
            </visugpx:TrkExtension>
        </extensions>
      </trkpt>
      <trkpt lat="43.30267" lon="-0.96717">
        <ele>168.1</ele>
      </trkpt>
      <trkpt lat="43.30201" lon="-0.96658">
        <ele>162</ele>
      </trkpt>
      <trkpt lat="43.30165" lon="-0.96634">
        <ele>161.3</ele>
      </trkpt>
      <trkpt lat="43.30077" lon="-0.96611">
        <ele>159</ele>
      </trkpt>
      <trkpt lat="43.30034" lon="-0.96604">
        <ele>158.9</ele>
      </trkpt>
      <trkpt lat="43.30024" lon="-0.96605">
        <ele>159.3</ele>
        <extensions>
          <visugpx:TrkExtension xmlns:visugpx="https://www.visugpx.com/editgpx/">
            <visugpx:node>4</visugpx:node>
            </visugpx:TrkExtension>
        </extensions>
      </trkpt>
      <trkpt lat="43.29991" lon="-0.96606">
        <ele>160.8</ele>
      </trkpt>
      <trkpt lat="43.29902" lon="-0.96632">
        <ele>173.3</ele>
        <extensions>
          <visugpx:TrkExtension xmlns:visugpx="https://www.visugpx.com/editgpx/">
            <visugpx:node>5</visugpx:node>
            </visugpx:TrkExtension>
        </extensions>
      </trkpt>
      <trkpt lat="43.29897" lon="-0.96633">
        <ele>173.5</ele>
      </trkpt>
      <trkpt lat="43.29887" lon="-0.96645">
        <ele>174.4</ele>
      </trkpt>
      <trkpt lat="43.29879" lon="-0.96659">
        <ele>174.3</ele>
      </trkpt>
      <trkpt lat="43.29861" lon="-0.96698">
        <ele>176.5</ele>
      </trkpt>
      <trkpt lat="43.2985" lon="-0.96724">
        <ele>177.9</ele>
      </trkpt>
      <trkpt lat="43.2979" lon="-0.96819">
        <ele>183.1</ele>
      </trkpt>
      <trkpt lat="43.29766" lon="-0.96871">
        <ele>184</ele>
      </trkpt>
      <trkpt lat="43.29733" lon="-0.96949">
        <ele>182</ele>
      </trkpt>
      <trkpt lat="43.29721" lon="-0.96964">
        <ele>182.4</ele>
      </trkpt>
      <trkpt lat="43.29704" lon="-0.96969">
        <ele>182</ele>
      </trkpt>
      <trkpt lat="43.29673" lon="-0.9697">
        <ele>180.3</ele>
      </trkpt>
      <trkpt lat="43.29507" lon="-0.97067">
        <ele>177.5</ele>
      </trkpt>
      <trkpt lat="43.2948" lon="-0.97087">
        <ele>178.3</ele>
      </trkpt>
      <trkpt lat="43.29464" lon="-0.97134">
        <ele>180.7</ele>
      </trkpt>
      <trkpt lat="43.29459" lon="-0.972">
        <ele>186.1</ele>
      </trkpt>
      <trkpt lat="43.29457" lon="-0.97205">
        <ele>186.1</ele>
        <extensions>
          <visugpx:TrkExtension xmlns:visugpx="https://www.visugpx.com/editgpx/">
            <visugpx:node>6</visugpx:node>
            </visugpx:TrkExtension>
        </extensions>
      </trkpt>
      <trkpt lat="43.29449" lon="-0.9722">
        <ele>185.8</ele>
        <extensions>
          <visugpx:TrkExtension xmlns:visugpx="https://www.visugpx.com/editgpx/">
            <visugpx:node>7</visugpx:node>
            </visugpx:TrkExtension>
        </extensions>
      </trkpt>
      <trkpt lat="43.29452" lon="-0.97229">
        <ele>186.085</ele>
        <time>2016-09-25T21:12:02Z</time>
        <extensions>
          <visugpx:TrkExtension xmlns:visugpx="https://www.visugpx.com/editgpx/">
            <visugpx:node>8</visugpx:node>
            </visugpx:TrkExtension>
        </extensions>
      </trkpt>
      <trkpt lat="43.29379" lon="-0.97251">
        <ele>186.096</ele>
        <time>2016-09-25T21:12:22Z</time>
      </trkpt>
      <trkpt lat="43.29339" lon="-0.97294">
        <ele>184.939</ele>
        <time>2016-09-25T21:12:42Z</time>
      </trkpt>
      <trkpt lat="43.29271" lon="-0.97489">
        <ele>188.528</ele>
        <time>2016-09-25T21:13:02Z</time>
      </trkpt>
      <trkpt lat="43.29236" lon="-0.97645">
        <ele>195.041</ele>
        <time>2016-09-25T21:13:22Z</time>
      </trkpt>
      <trkpt lat="43.29193" lon="-0.97684">
        <ele>192.581</ele>
        <time>2016-09-25T21:13:42Z</time>
      </trkpt>
      <trkpt lat="43.29274" lon="-0.97809">
        <ele>177.009</ele>
        <time>2016-09-25T21:14:02Z</time>
      </trkpt>
      <trkpt lat="43.29246" lon="-0.97886">
        <ele>174.308</ele>
        <time>2016-09-25T21:14:22Z</time>
      </trkpt>
      <trkpt lat="43.29205" lon="-0.97931">
        <ele>164.68</ele>
        <time>2016-09-25T21:14:42Z</time>
      </trkpt>
      <trkpt lat="43.29115" lon="-0.97942">
        <ele>148.427</ele>
        <time>2016-09-25T21:15:02Z</time>
      </trkpt>
      <trkpt lat="43.29026" lon="-0.97982">
        <ele>141.986</ele>
        <time>2016-09-25T21:15:22Z</time>
      </trkpt>
      <trkpt lat="43.2893" lon="-0.98152">
        <ele>130.325</ele>
        <time>2016-09-25T21:15:42Z</time>
      </trkpt>
      <trkpt lat="43.28827" lon="-0.98263">
        <ele>121.251</ele>
        <time>2016-09-25T21:16:02Z</time>
      </trkpt>
      <trkpt lat="43.28746" lon="-0.98339">
        <ele>120.162</ele>
        <time>2016-09-25T21:16:22Z</time>
      </trkpt>
      <trkpt lat="43.28687" lon="-0.98583">
        <ele>114.535</ele>
        <time>2016-09-25T21:16:42Z</time>
      </trkpt>
      <trkpt lat="43.28704" lon="-0.98787">
        <ele>105.174</ele>
        <time>2016-09-25T21:17:02Z</time>
      </trkpt>
      <trkpt lat="43.28669" lon="-0.98993">
        <ele>97.759</ele>
        <time>2016-09-25T21:17:22Z</time>
      </trkpt>
      <trkpt lat="43.28699" lon="-0.99006">
        <ele>94.803</ele>
        <time>2016-09-25T21:17:42Z</time>
      </trkpt>
      <trkpt lat="43.28833" lon="-0.99244">
        <ele>92.423</ele>
        <time>2016-09-25T21:18:02Z</time>
      </trkpt>
      <trkpt lat="43.29008" lon="-0.99759">
        <ele>86.608</ele>
        <time>2016-09-25T21:18:22Z</time>
      </trkpt>
      <trkpt lat="43.29229" lon="-0.99969">
        <ele>88.781</ele>
        <time>2016-09-25T21:18:42Z</time>
      </trkpt>
      <trkpt lat="43.2926" lon="-1.00066">
        <ele>90.668</ele>
        <time>2016-09-25T21:19:02Z</time>
      </trkpt>
      <trkpt lat="43.29047" lon="-1.00418">
        <ele>110.077</ele>
        <time>2016-09-25T21:19:22Z</time>
      </trkpt>
      <trkpt lat="43.29044" lon="-1.00577">
        <ele>117.726</ele>
        <time>2016-09-25T21:19:42Z</time>
      </trkpt>
      <trkpt lat="43.29066" lon="-1.00695">
        <ele>125.582</ele>
        <time>2016-09-25T21:20:02Z</time>
      </trkpt>
      <trkpt lat="43.29108" lon="-1.00808">
        <ele>131.353</ele>
        <time>2016-09-25T21:20:22Z</time>
      </trkpt>
      <trkpt lat="43.29099" lon="-1.00862">
        <ele>135.336</ele>
        <time>2016-09-25T21:20:42Z</time>
      </trkpt>
      <trkpt lat="43.29134" lon="-1.01155">
        <ele>132.175</ele>
        <time>2019-03-30T19:59:45Z</time>
      </trkpt>
      <trkpt lat="43.29154" lon="-1.01201">
        <ele>129.518</ele>
        <time>2019-03-30T20:00:05Z</time>
      </trkpt>
      <trkpt lat="43.29261" lon="-1.01235">
        <ele>125.298</ele>
        <time>2019-03-30T20:00:25Z</time>
      </trkpt>
      <trkpt lat="43.29271" lon="-1.01257">
        <ele>122.817</ele>
        <time>2016-09-28T14:12:59Z</time>
      </trkpt>
      <trkpt lat="43.2925" lon="-1.01332">
        <ele>118.287</ele>
        <time>2016-09-28T14:13:39Z</time>
      </trkpt>
      <trkpt lat="43.29276" lon="-1.01508">
        <ele>109.584</ele>
        <time>2016-09-28T14:14:19Z</time>
      </trkpt>
      <trkpt lat="43.29335" lon="-1.01566">
        <ele>99.723</ele>
        <time>2016-09-28T14:14:59Z</time>
      </trkpt>
      <trkpt lat="43.29374" lon="-1.01658">
        <ele>92.922</ele>
        <time>2016-09-28T14:15:39Z</time>
      </trkpt>
      <trkpt lat="43.29396" lon="-1.01753">
        <ele>89.678</ele>
        <time>2016-09-28T14:16:19Z</time>
      </trkpt>
      <trkpt lat="43.29493" lon="-1.01879">
        <ele>86.459</ele>
        <time>2016-09-28T14:16:59Z</time>
      </trkpt>
      <trkpt lat="43.29554" lon="-1.01993">
        <ele>82.212</ele>
        <time>2016-09-28T14:17:39Z</time>
      </trkpt>
      <trkpt lat="43.29599" lon="-1.02169">
        <ele>82.481</ele>
        <time>2016-09-28T14:18:19Z</time>
      </trkpt>
      <trkpt lat="43.29632" lon="-1.02163">
        <ele>84.122</ele>
        <time>2016-09-28T14:18:59Z</time>
      </trkpt>
      <trkpt lat="43.29657" lon="-1.02191">
        <ele>81.662</ele>
        <time>2016-09-28T14:19:39Z</time>
      </trkpt>
      <trkpt lat="43.29688" lon="-1.02165">
        <ele>75.908</ele>
        <time>2016-09-28T14:20:19Z</time>
      </trkpt>
      <trkpt lat="43.29724" lon="-1.0217">
        <ele>70.8</ele>
      </trkpt>
      <trkpt lat="43.29753" lon="-1.02159">
        <ele>67.3</ele>
      </trkpt>
      <trkpt lat="43.29796" lon="-1.02193">
        <ele>63.4</ele>
        <time>2016-09-28T14:20:59Z</time>
      </trkpt>
      <trkpt lat="43.29806" lon="-1.02214">
        <ele>63</ele>
      </trkpt>
      <trkpt lat="43.29803" lon="-1.02286">
        <ele>63.1</ele>
      </trkpt>
      <trkpt lat="43.29809" lon="-1.02298">
        <ele>60.178</ele>
        <time>2016-09-28T14:21:39Z</time>
      </trkpt>
      <trkpt lat="43.29865" lon="-1.02324">
        <ele>65.375</ele>
        <time>2016-09-28T14:22:19Z</time>
      </trkpt>
      <trkpt lat="43.29874" lon="-1.02465">
        <ele>72.574</ele>
        <time>2016-09-28T14:22:59Z</time>
      </trkpt>
      <trkpt lat="43.2991" lon="-1.02583">
        <ele>86.673</ele>
        <time>2016-09-28T14:23:39Z</time>
      </trkpt>
      <trkpt lat="43.2989" lon="-1.0265">
        <ele>87.879</ele>
        <time>2016-09-28T14:24:19Z</time>
      </trkpt>
      <trkpt lat="43.2994" lon="-1.02723">
        <ele>99.49</ele>
        <time>2016-09-28T14:24:59Z</time>
      </trkpt>
      <trkpt lat="43.29935" lon="-1.0277">
        <ele>106.7</ele>
      </trkpt>
      <trkpt lat="43.2992" lon="-1.02793">
        <ele>106.6</ele>
      </trkpt>
      <trkpt lat="43.29901" lon="-1.02812">
        <ele>108.5</ele>
        <time>2016-09-28T14:25:39Z</time>
      </trkpt>
      <trkpt lat="43.29888" lon="-1.02875">
        <ele>114.882</ele>
        <time>2016-09-28T14:26:19Z</time>
      </trkpt>
      <trkpt lat="43.29884" lon="-1.03034">
        <ele>132.952</ele>
        <time>2016-09-28T14:26:59Z</time>
      </trkpt>
      <trkpt lat="43.2986" lon="-1.0307">
        <ele>133.553</ele>
        <time>2016-09-28T14:27:39Z</time>
      </trkpt>
      <trkpt lat="43.29877" lon="-1.033">
        <ele>144.308</ele>
        <time>2016-09-28T14:28:19Z</time>
      </trkpt>
      <trkpt lat="43.29879" lon="-1.03431">
        <ele>144.408</ele>
        <time>2016-09-28T14:28:59Z</time>
      </trkpt>
      <trkpt lat="43.29916" lon="-1.03567">
        <ele>150.6</ele>
        <time>2016-09-28T14:29:39Z</time>
      </trkpt>
      <trkpt lat="43.29648" lon="-1.03764">
        <ele>171.618</ele>
        <time>2016-09-28T14:30:19Z</time>
      </trkpt>
      <trkpt lat="43.29545" lon="-1.0381">
        <ele>191.067</ele>
        <time>2016-09-28T14:30:59Z</time>
      </trkpt>
      <trkpt lat="43.29379" lon="-1.03962">
        <ele>221.056</ele>
        <time>2016-09-28T14:31:39Z</time>
      </trkpt>
      <trkpt lat="43.29284" lon="-1.04022">
        <ele>235.742</ele>
        <time>2016-09-28T14:32:19Z</time>
      </trkpt>
      <trkpt lat="43.29189" lon="-1.04099">
        <ele>255.023</ele>
        <time>2016-09-28T14:32:59Z</time>
      </trkpt>
      <trkpt lat="43.29076" lon="-1.04108">
        <ele>262.796</ele>
        <time>2016-09-28T14:33:39Z</time>
      </trkpt>
      <trkpt lat="43.28864" lon="-1.04194">
        <ele>280.085</ele>
        <time>2016-09-28T14:34:19Z</time>
      </trkpt>
      <trkpt lat="43.28803" lon="-1.04196">
        <ele>282.877</ele>
        <time>2016-09-28T14:34:59Z</time>
      </trkpt>
      <trkpt lat="43.286" lon="-1.04217">
        <ele>275.061</ele>
        <time>2016-09-28T14:35:39Z</time>
      </trkpt>
      <trkpt lat="43.28408" lon="-1.0437">
        <ele>289.927</ele>
        <time>2016-09-28T14:36:19Z</time>
      </trkpt>
      <trkpt lat="43.28382" lon="-1.04308">
        <ele>286.133</ele>
        <time>2016-09-28T14:37:39Z</time>
      </trkpt>
      <trkpt lat="43.28296" lon="-1.04328">
        <ele>280.56</ele>
        <time>2016-09-28T14:38:19Z</time>
      </trkpt>
      <trkpt lat="43.28216" lon="-1.04377">
        <ele>269.449</ele>
        <time>2016-09-28T14:38:59Z</time>
      </trkpt>
      <trkpt lat="43.28101" lon="-1.04504">
        <ele>253.348</ele>
        <time>2016-09-28T14:39:39Z</time>
      </trkpt>
      <trkpt lat="43.28101" lon="-1.04504">
        <ele>253.348</ele>
        <time>2016-09-28T14:39:39Z</time>
      </trkpt>
      <trkpt lat="43.28004" lon="-1.04497">
        <ele>244.954</ele>
        <time>2016-09-28T14:40:19Z</time>
      </trkpt>
      <trkpt lat="43.27846" lon="-1.04377">
        <ele>235.225</ele>
        <time>2016-09-28T14:40:59Z</time>
      </trkpt>
      <trkpt lat="43.27796" lon="-1.04321">
        <ele>224.028</ele>
        <time>2016-09-28T14:41:39Z</time>
      </trkpt>
      <trkpt lat="43.27649" lon="-1.0439">
        <ele>199.827</ele>
        <time>2016-09-28T14:42:19Z</time>
      </trkpt>
      <trkpt lat="43.27604" lon="-1.04433">
        <ele>191.048</ele>
        <time>2016-09-28T14:42:59Z</time>
      </trkpt>
      <trkpt lat="43.27546" lon="-1.04452">
        <ele>180.761</ele>
        <time>2016-09-28T14:43:39Z</time>
      </trkpt>
      <trkpt lat="43.2751" lon="-1.04517">
        <ele>169.117</ele>
        <time>2016-09-28T14:44:19Z</time>
      </trkpt>
      <trkpt lat="43.27516" lon="-1.04572">
        <ele>164.208</ele>
        <time>2016-09-28T14:44:59Z</time>
      </trkpt>
      <trkpt lat="43.27449" lon="-1.04587">
        <ele>157.24</ele>
        <time>2016-09-28T14:45:39Z</time>
      </trkpt>
      <trkpt lat="43.27415" lon="-1.04609">
        <ele>152.117</ele>
        <time>2016-09-28T14:46:19Z</time>
      </trkpt>
      <trkpt lat="43.27276" lon="-1.0466">
        <ele>149.366</ele>
        <time>2016-09-28T14:46:59Z</time>
      </trkpt>
      <trkpt lat="43.2726" lon="-1.04757">
        <ele>147.565</ele>
        <time>2016-09-28T14:47:39Z</time>
      </trkpt>
      <trkpt lat="43.27202" lon="-1.04851">
        <ele>141.1</ele>
      </trkpt>
      <trkpt lat="43.27194" lon="-1.04898">
        <ele>135</ele>
        <time>2016-09-28T14:48:19Z</time>
      </trkpt>
      <trkpt lat="43.27195" lon="-1.04945">
        <ele>129.092</ele>
        <time>2016-09-28T14:48:59Z</time>
      </trkpt>
      <trkpt lat="43.27185" lon="-1.04981">
        <ele>122.125</ele>
        <time>2016-09-28T14:49:39Z</time>
      </trkpt>
      <trkpt lat="43.27096" lon="-1.05018">
        <ele>120.584</ele>
        <time>2016-09-28T14:50:19Z</time>
      </trkpt>
      <trkpt lat="43.27049" lon="-1.04919">
        <ele>131.843</ele>
        <time>2016-09-28T14:50:59Z</time>
      </trkpt>
      <trkpt lat="43.26984" lon="-1.05045">
        <ele>149.164</ele>
        <time>2016-09-28T14:51:39Z</time>
      </trkpt>
      <trkpt lat="43.26967" lon="-1.05266">
        <ele>168.01</ele>
        <time>2016-09-28T14:52:19Z</time>
      </trkpt>
      <trkpt lat="43.26934" lon="-1.05354">
        <ele>168.708</ele>
        <time>2016-09-28T14:52:59Z</time>
      </trkpt>
      <trkpt lat="43.26885" lon="-1.05378">
        <ele>166.52</ele>
        <time>2016-09-28T14:53:39Z</time>
      </trkpt>
      <trkpt lat="43.26863" lon="-1.05378">
        <ele>166.827</ele>
        <time>2016-09-28T14:54:19Z</time>
      </trkpt>
      <trkpt lat="43.26777" lon="-1.05412">
        <ele>171.556</ele>
        <time>2016-09-28T14:54:59Z</time>
      </trkpt>
      <trkpt lat="43.26673" lon="-1.05348">
        <ele>165.825</ele>
        <time>2016-09-28T14:55:39Z</time>
        <extensions>
          <visugpx:TrkExtension xmlns:visugpx="https://www.visugpx.com/editgpx/">
            <visugpx:node>9</visugpx:node>
            </visugpx:TrkExtension>
        </extensions>
      </trkpt>
      <trkpt lat="43.26667" lon="-1.05349">
        <ele>168.7</ele>
      </trkpt>
      <trkpt lat="43.26654" lon="-1.05331">
        <ele>166.7</ele>
      </trkpt>
      <trkpt lat="43.26639" lon="-1.05321">
        <ele>166.1</ele>
      </trkpt>
      <trkpt lat="43.26623" lon="-1.05324">
        <ele>164.6</ele>
      </trkpt>
      <trkpt lat="43.26603" lon="-1.05348">
        <ele>162.9</ele>
      </trkpt>
      <trkpt lat="43.26518" lon="-1.05466">
        <ele>151.8</ele>
      </trkpt>
      <trkpt lat="43.26514" lon="-1.05482">
        <ele>151</ele>
      </trkpt>
      <trkpt lat="43.26516" lon="-1.05529">
        <ele>147.4</ele>
      </trkpt>
      <trkpt lat="43.26509" lon="-1.05542">
        <ele>145.8</ele>
      </trkpt>
      <trkpt lat="43.265" lon="-1.05546">
        <ele>145</ele>
      </trkpt>
      <trkpt lat="43.26461" lon="-1.05546">
        <ele>141.5</ele>
      </trkpt>
      <trkpt lat="43.26448" lon="-1.05552">
        <ele>139.6</ele>
      </trkpt>
      <trkpt lat="43.26426" lon="-1.05568">
        <ele>137.6</ele>
      </trkpt>
      <trkpt lat="43.26374" lon="-1.05654">
        <ele>130.1</ele>
      </trkpt>
      <trkpt lat="43.26355" lon="-1.05695">
        <ele>126.8</ele>
        <extensions>
          <visugpx:TrkExtension xmlns:visugpx="https://www.visugpx.com/editgpx/">
            <visugpx:node>10</visugpx:node>
            </visugpx:TrkExtension>
        </extensions>
      </trkpt>
    </trkseg>
  </trk>
</gpx>